Time;durP1;ratioP1;P1;durP2;ratioP2;P2;SDS_P1;SDS_P2;PMS_P1;PMS_P2;Temp;Humidity;BMP_temperature;BMP_pressure;BME280_temperature;BME280_humidity;BME280_pressure;Samples;Min_cycle;Max_cycle;Signal;HPM_P1;HPM_P2
2022/03/08 00:00:34;;;;;;;;;;;;;;;;;;6221740;22;19942;-85
2022/03/08 00:03:01;;;;;;;;;;;;;;;;;;6276341;22;20477;-85
2022/03/08 00:05:27;;;;;;;;;;;;;;;;;;6249000;22;19969;-85
2022/03/08 00:07:53;;;;;;;;;;;;;;;;;;6247996;22;19922;-85
2022/03/08 00:10:22;;;;;;;;;;;;;;;;;;6247381;22;19918;-85
2022/03/08 00:12:48;;;;;;;;;;;;;;;;;;6272464;22;19918;-85
2022/03/08 00:15:14;;;;;;;;;;;;;;;;;;6245890;22;19968;-85
2022/03/08 00:17:40;;;;;;;;;;;;;;;;;;6246227;22;19990;-85
2022/03/08 00:20:06;;;;;;;;;;;;;;;;;;6272029;22;20401;-85
2022/03/08 00:22:32;;;;;;;;;;;;;;;;;;6246693;22;19926;-86
2022/03/08 00:25:08;;;;;;;;;;;;;;;;;;6247394;22;19915;-85
2022/03/08 00:27:34;;;;;;;;;;;;;;;;;;6247500;22;19915;-85
2022/03/08 00:30:03;;;;;;;;;;;;;;;;;;6248061;22;20022;-86
2022/03/08 00:32:31;;;;;;;;;;;;;;;;;;6248384;22;19919;-85
2022/03/08 00:34:57;;;;;;;;;;;;;;;;;;6247009;22;19919;-85
2022/03/08 00:37:23;;;;;;;;;;;;;;;;;;6273614;22;20227;-85
2022/03/08 00:39:50;;;;;;;;;;;;;;;;;;6248764;22;19989;-85
2022/03/08 00:42:18;;;;;;;;;;;;;;;;;;6248495;22;19927;-86
2022/03/08 00:44:45;;;;;;;;;;;;;;;;;;6273635;22;20244;-85
2022/03/08 00:47:11;;;;;;;;;;;;;;;;;;6248313;22;19923;-85
2022/03/08 00:49:43;;;;;;;;;;;;;;;;;;6248836;22;20004;-85
2022/03/08 00:52:09;;;;;;;;;;;;;;;;;;6248107;22;20347;-85
2022/03/08 00:54:35;;;;;;;;;;;;;;;;;;6273173;22;19919;-85
2022/03/08 00:57:02;;;;;;;;;;;;;;;;;;6247384;22;19950;-85
2022/03/08 00:59:29;;;;;;;;;;;;;;;;;;6248135;22;19998;-85
2022/03/08 01:01:55;;;;;;;;;;;;;;;;;;6246358;22;19920;-85
2022/03/08 01:04:21;;;;;;;;;;;;;;;;;;6247211;22;19969;-85
2022/03/08 01:06:47;;;;;;;;;;;;;;;;;;6245697;22;19922;-85
2022/03/08 01:09:13;;;;;;;;;;;;;;;;;;6245841;22;20750;-85
2022/03/08 01:11:39;;;;;;;;;;;;;;;;;;6270791;22;19919;-85
2022/03/08 01:14:06;;;;;;;;;;;;;;;;;;6271679;22;19930;-85
2022/03/08 01:16:32;;;;;;;;;;;;;;;;;;6272983;22;19915;-85
2022/03/08 01:18:58;;;;;;;;;;;;;;;;;;6245528;22;19953;-86
2022/03/08 01:21:24;;;;;;;;;;;;;;;;;;6246338;22;20469;-86
2022/03/08 01:23:50;;;;;;;;;;;;;;;;;;6273126;22;19925;-85
2022/03/08 01:26:18;;;;;;;;;;;;;;;;;;6274416;22;19918;-85
2022/03/08 01:28:44;;;;;;;;;;;;;;;;;;6250669;22;19922;-85
2022/03/08 01:31:11;;;;;;;;;;;;;;;;;;6249483;22;20002;-86
2022/03/08 01:33:37;;;;;;;;;;;;;;;;;;6274680;22;19995;-85
2022/03/08 01:36:03;;;;;;;;;;;;;;;;;;6246903;22;19919;-85
2022/03/08 01:38:29;;;;;;;;;;;;;;;;;;6249743;22;19919;-85
2022/03/08 01:40:55;;;;;;;;;;;;;;;;;;6247398;22;19918;-85
2022/03/08 01:43:21;;;;;;;;;;;;;;;;;;6247375;22;19930;-85
2022/03/08 01:45:47;;;;;;;;;;;;;;;;;;6248031;22;20038;-85
2022/03/08 01:48:13;;;;;;;;;;;;;;;;;;6248416;22;20299;-85
2022/03/08 01:50:40;;;;;;;;;;;;;;;;;;6248363;22;19969;-86
2022/03/08 01:53:06;;;;;;;;;;;;;;;;;;6247344;22;20318;-85
2022/03/08 01:55:32;;;;;;;;;;;;;;;;;;6271031;22;19923;-86
2022/03/08 01:57:59;;;;;;;;;;;;;;;;;;6270500;22;20422;-85
2022/03/08 02:00:25;;;;;;;;;;;;;;;;;;6244404;22;19998;-86
2022/03/08 02:02:51;;;;;;;;;;;;;;;;;;6271594;22;19919;-85
2022/03/08 02:05:17;;;;;;;;;;;;;;;;;;6268822;22;19985;-86
2022/03/08 02:07:44;;;;;;;;;;;;;;;;;;6246203;22;20000;-86
2022/03/08 02:10:10;;;;;;;;;;;;;;;;;;6270590;22;19919;-86
2022/03/08 02:12:37;;;;;;;;;;;;;;;;;;6244224;22;19923;-86
2022/03/08 02:15:03;;;;;;;;;;;;;;;;;;6244754;22;20496;-86
2022/03/08 02:17:32;;;;;;;;;;;;;;;;;;6270313;22;20274;-85
2022/03/08 02:19:58;;;;;;;;;;;;;;;;;;6270621;22;19921;-85
2022/03/08 02:22:25;;;;;;;;;;;;;;;;;;6270116;22;19918;-85
2022/03/08 02:24:50;;;;;;;;;;;;;;;;;;6244721;22;19919;-86
2022/03/08 02:27:16;;;;;;;;;;;;;;;;;;6244081;22;19998;-85
2022/03/08 02:29:42;;;;;;;;;;;;;;;;;;6244762;22;19926;-85
2022/03/08 02:32:08;;;;;;;;;;;;;;;;;;6267575;22;19957;-85
2022/03/08 02:34:34;;;;;;;;;;;;;;;;;;6244050;22;19922;-85
2022/03/08 02:37:00;;;;;;;;;;;;;;;;;;6245380;22;19915;-85
2022/03/08 02:39:26;;;;;;;;;;;;;;;;;;6270553;22;20040;-86
2022/03/08 02:41:52;;;;;;;;;;;;;;;;;;6243428;22;19996;-85
2022/03/08 02:44:20;;;;;;;;;;;;;;;;;;6244005;22;19918;-85
2022/03/08 02:46:50;;;;;;;;;;;;;;;;;;6244858;22;19915;-86
2022/03/08 02:49:22;;;;;;;;;;;;;;;;;;6270315;22;20378;-85
2022/03/08 02:51:50;;;;;;;;;;;;;;;;;;6246036;22;19918;-86
2022/03/08 02:54:18;;;;;;;;;;;;;;;;;;6270957;22;19923;-85
2022/03/08 02:56:45;;;;;;;;;;;;;;;;;;6246596;22;20438;-86
2022/03/08 02:59:20;;;;;;;;;;;;;;;;;;6248406;22;19918;-86
2022/03/08 03:01:46;;;;;;;;;;;;;;;;;;6271660;22;19927;-85
2022/03/08 03:04:13;;;;;;;;;;;;;;;;;;6246277;22;19926;-85
2022/03/08 03:06:40;;;;;;;;;;;;;;;;;;6270411;22;19927;-85
2022/03/08 03:09:08;;;;;;;;;;;;;;;;;;6245956;22;19930;-86
2022/03/08 03:11:34;;;;;;;;;;;;;;;;;;6270320;22;19919;-85
2022/03/08 03:14:02;;;;;;;;;;;;;;;;;;6245853;22;19929;-86
2022/03/08 03:16:29;;;;;;;;;;;;;;;;;;6271788;22;19973;-85
2022/03/08 03:18:57;;;;;;;;;;;;;;;;;;6271915;22;19915;-85
2022/03/08 03:21:24;;;;;;;;;;;;;;;;;;6245569;22;19969;-84
2022/03/08 03:23:50;;;;;;;;;;;;;;;;;;6272430;22;19923;-85
2022/03/08 03:26:17;;;;;;;;;;;;;;;;;;6248568;22;19923;-85
2022/03/08 03:28:43;;;;;;;;;;;;;;;;;;6271525;22;19923;-85
2022/03/08 03:31:10;;;;;;;;;;;;;;;;;;6270427;22;20390;-85
2022/03/08 03:33:37;;;;;;;;;;;;;;;;;;6245285;22;19926;-85
2022/03/08 03:36:03;;;;;;;;;;;;;;;;;;6270200;22;20033;-85
2022/03/08 03:38:29;;;;;;;;;;;;;;;;;;6272227;22;19962;-85
2022/03/08 03:40:55;;;;;;;;;;;;;;;;;;6270459;22;19926;-85
2022/03/08 03:43:21;;;;;;;;;;;;;;;;;;6245378;22;20016;-85
2022/03/08 03:45:47;;;;;;;;;;;;;;;;;;6246171;22;19919;-85
2022/03/08 03:48:13;;;;;;;;;;;;;;;;;;6270791;22;19973;-85
2022/03/08 03:50:41;;;;;;;;;;;;;;;;;;6245778;22;19918;-84
2022/03/08 03:53:07;;;;;;;;;;;;;;;;;;6244290;22;19915;-85
2022/03/08 03:55:33;;;;;;;;;;;;;;;;;;6244818;22;19929;-85
2022/03/08 03:57:59;;;;;;;;;;;;;;;;;;6244876;22;20324;-85
2022/03/08 04:00:28;;;;;;;;;;;;;;;;;;6270638;22;19919;-85
2022/03/08 04:02:55;;;;;;;;;;;;;;;;;;6270998;22;19945;-85
2022/03/08 04:05:36;;;;;;;;;;;;;;;;;;6211872;23;19928;-85
2022/03/08 04:08:02;;;;;;;;;;;;;;;;;;6183945;23;19915;-85
2022/03/08 04:10:29;;;;;;;;;;;;;;;;;;6183048;23;19919;-85
2022/03/08 04:12:55;;;;;;;;;;;;;;;;;;6233588;23;19947;-85
2022/03/08 04:15:21;;;;;;;;;;;;;;;;;;6181939;23;19923;-85
2022/03/08 04:17:47;;;;;;;;;;;;;;;;;;6234677;23;19920;-85
2022/03/08 04:20:17;;;;;;;;;;;;;;;;;;6233453;23;19986;-85
2022/03/08 04:22:45;;;;;;;;;;;;;;;;;;6233540;23;19919;-85
2022/03/08 04:25:12;;;;;;;;;;;;;;;;;;6183795;23;19934;-85
2022/03/08 04:27:39;;;;;;;;;;;;;;;;;;6185581;23;20066;-85
2022/03/08 04:30:05;;;;;;;;;;;;;;;;;;6207968;23;19919;-85
2022/03/08 04:32:31;;;;;;;;;;;;;;;;;;6185113;23;19926;-85
2022/03/08 04:34:57;;;;;;;;;;;;;;;;;;6234621;23;19924;-85
2022/03/08 04:37:23;;;;;;;;;;;;;;;;;;6267017;22;19919;-85
2022/03/08 04:39:49;;;;;;;;;;;;;;;;;;6273920;22;19926;-84
2022/03/08 04:42:15;;;;;;;;;;;;;;;;;;6247565;22;19923;-85
2022/03/08 04:44:45;;;;;;;;;;;;;;;;;;6248231;22;19965;-85
2022/03/08 04:47:11;;;;;;;;;;;;;;;;;;6245837;22;19919;-85
2022/03/08 04:49:40;;;;;;;;;;;;;;;;;;6273571;22;20381;-86
2022/03/08 04:52:06;;;;;;;;;;;;;;;;;;6248024;22;20449;-85
2022/03/08 04:54:33;;;;;;;;;;;;;;;;;;6246818;22;19922;-85
2022/03/08 04:57:00;;;;;;;;;;;;;;;;;;6247661;22;19918;-85
2022/03/08 04:59:26;;;;;;;;;;;;;;;;;;6270655;22;19965;-85
2022/03/08 05:01:52;;;;;;;;;;;;;;;;;;6268960;22;19919;-86
2022/03/08 05:04:18;;;;;;;;;;;;;;;;;;6246391;22;19922;-86
2022/03/08 05:06:44;;;;;;;;;;;;;;;;;;6272252;22;19919;-85
2022/03/08 05:09:11;;;;;;;;;;;;;;;;;;6246983;22;20340;-85
2022/03/08 05:11:38;;;;;;;;;;;;;;;;;;6272352;22;20387;-85
2022/03/08 05:14:04;;;;;;;;;;;;;;;;;;6246906;22;19919;-86
2022/03/08 05:16:31;;;;;;;;;;;;;;;;;;6248651;22;19984;-85
2022/03/08 05:18:59;;;;;;;;;;;;;;;;;;6250590;22;19915;-85
2022/03/08 05:21:25;;;;;;;;;;;;;;;;;;6274099;22;19915;-85
2022/03/08 05:23:52;;;;;;;;;;;;;;;;;;6272814;22;19950;-85
2022/03/08 05:26:19;;;;;;;;;;;;;;;;;;6249820;22;20323;-85
2022/03/08 05:28:46;;;;;;;;;;;;;;;;;;6249873;22;19926;-85
2022/03/08 05:31:12;;;;;;;;;;;;;;;;;;6250554;22;19918;-85
2022/03/08 05:33:38;;;;;;;;;;;;;;;;;;6276437;22;19973;-85
2022/03/08 05:36:04;;;;;;;;;;;;;;;;;;6250224;22;20485;-85
2022/03/08 05:38:30;;;;;;;;;;;;;;;;;;6249344;22;19915;-85
2022/03/08 05:40:56;;;;;;;;;;;;;;;;;;6272957;22;20371;-85
2022/03/08 05:43:23;;;;;;;;;;;;;;;;;;6249538;22;19923;-85
2022/03/08 05:45:49;;;;;;;;;;;;;;;;;;6249582;22;19989;-85
2022/03/08 05:48:15;;;;;;;;;;;;;;;;;;6248717;22;19918;-86
2022/03/08 05:50:41;;;;;;;;;;;;;;;;;;6272196;22;19926;-85
2022/03/08 05:53:07;;;;;;;;;;;;;;;;;;6246920;22;19926;-84
2022/03/08 05:55:33;;;;;;;;;;;;;;;;;;6297500;22;19923;-85
2022/03/08 05:57:59;;;;;;;;;;;;;;;;;;6245124;22;20330;-87
2022/03/08 06:00:25;;;;;;;;;;;;;;;;;;6246350;22;19918;-87
2022/03/08 06:02:51;;;;;;;;;;;;;;;;;;6248601;22;19925;-86
2022/03/08 06:05:18;;;;;;;;;;;;;;;;;;6244802;22;19974;-86
2022/03/08 06:07:44;;;;;;;;;;;;;;;;;;6246474;22;20328;-87
2022/03/08 06:10:10;;;;;;;;;;;;;;;;;;6244679;22;19918;-86
2022/03/08 06:12:37;;;;;;;;;;;;;;;;;;6245949;22;19984;-86
2022/03/08 06:15:03;;;;;;;;;;;;;;;;;;6246285;22;19966;-86
2022/03/08 06:17:29;;;;;;;;;;;;;;;;;;6248479;22;19915;-87
2022/03/08 06:19:55;;;;;;;;;;;;;;;;;;6248563;22;19985;-86
2022/03/08 06:22:21;;;;;;;;;;;;;;;;;;6248249;22;19922;-87
2022/03/08 06:24:47;;;;;;;;;;;;;;;;;;6248887;22;20357;-87
2022/03/08 06:27:14;;;;;;;;;;;;;;;;;;6247589;22;20264;-87
2022/03/08 06:29:40;;;;;;;;;;;;;;;;;;6248252;22;19918;-87
2022/03/08 06:32:07;;;;;;;;;;;;;;;;;;6275117;22;19923;-87
2022/03/08 06:34:35;;;;;;;;;;;;;;;;;;6250054;22;19930;-87
2022/03/08 06:37:02;;;;;;;;;;;;;;;;;;6274051;22;19922;-86
2022/03/08 06:39:30;;;;;;;;;;;;;;;;;;6249555;22;19919;-87
2022/03/08 06:41:57;;;;;;;;;;;;;;;;;;6269258;22;19927;-87
2022/03/08 06:44:23;;;;;;;;;;;;;;;;;;6243046;22;19954;-87
2022/03/08 06:46:49;;;;;;;;;;;;;;;;;;6244344;22;20291;-87
2022/03/08 06:49:15;;;;;;;;;;;;;;;;;;6242950;22;19918;-86
2022/03/08 06:51:41;;;;;;;;;;;;;;;;;;6269573;22;19915;-86
2022/03/08 06:54:08;;;;;;;;;;;;;;;;;;6244046;22;19923;-87
2022/03/08 06:56:39;;;;;;;;;;;;;;;;;;6269145;22;20006;-88
2022/03/08 06:59:05;;;;;;;;;;;;;;;;;;6245242;22;19955;-86
2022/03/08 07:01:33;;;;;;;;;;;;;;;;;;6243536;22;20427;-86
2022/03/08 07:03:59;;;;;;;;;;;;;;;;;;6269405;22;19922;-86
2022/03/08 07:06:25;;;;;;;;;;;;;;;;;;6243930;22;19919;-86
2022/03/08 07:08:53;;;;;;;;;;;;;;;;;;6245765;22;19915;-86
2022/03/08 07:11:19;;;;;;;;;;;;;;;;;;6245882;22;19926;-87
2022/03/08 07:13:46;;;;;;;;;;;;;;;;;;6246254;22;19919;-86
2022/03/08 07:16:12;;;;;;;;;;;;;;;;;;6245652;22;20002;-87
2022/03/08 07:18:39;;;;;;;;;;;;;;;;;;6271444;22;19963;-87
2022/03/08 07:21:05;;;;;;;;;;;;;;;;;;6245685;22;20025;-87
2022/03/08 07:23:32;;;;;;;;;;;;;;;;;;6271151;22;20336;-87
2022/03/08 07:25:59;;;;;;;;;;;;;;;;;;6245542;22;19969;-87
2022/03/08 07:28:25;;;;;;;;;;;;;;;;;;6245950;22;19923;-87
2022/03/08 07:30:53;;;;;;;;;;;;;;;;;;6272013;22;19922;-87
2022/03/08 07:33:20;;;;;;;;;;;;;;;;;;6271793;22;20324;-87
2022/03/08 07:35:47;;;;;;;;;;;;;;;;;;6245853;22;19928;-87
2022/03/08 07:38:16;;;;;;;;;;;;;;;;;;6244975;22;19919;-87
2022/03/08 07:40:43;;;;;;;;;;;;;;;;;;6270651;22;19923;-87
2022/03/08 07:43:10;;;;;;;;;;;;;;;;;;6223769;22;20286;-87
2022/03/08 07:45:37;;;;;;;;;;;;;;;;;;6220755;22;20263;-87
2022/03/08 07:48:04;;;;;;;;;;;;;;;;;;6220536;22;19915;-88
2022/03/08 07:50:30;;;;;;;;;;;;;;;;;;6219240;22;19937;-87
2022/03/08 07:52:59;;;;;;;;;;;;;;;;;;6245380;22;20359;-87
2022/03/08 07:55:29;;;;;;;;;;;;;;;;;;6245822;22;20335;-87
2022/03/08 07:57:55;;;;;;;;;;;;;;;;;;6220399;22;19994;-88
2022/03/08 08:00:21;;;;;;;;;;;;;;;;;;6222255;22;19954;-88
2022/03/08 08:02:47;;;;;;;;;;;;;;;;;;6222563;22;19977;-87
2022/03/08 08:05:13;;;;;;;;;;;;;;;;;;6246877;22;19998;-87
2022/03/08 08:07:40;;;;;;;;;;;;;;;;;;6247642;22;20004;-87
2022/03/08 08:10:21;;;;;;;;;;;;;;;;;;6210449;23;19916;-88
2022/03/08 08:12:47;;;;;;;;;;;;;;;;;;6210748;23;19919;-88
2022/03/08 08:15:13;;;;;;;;;;;;;;;;;;6210679;23;19962;-88
2022/03/08 08:17:40;;;;;;;;;;;;;;;;;;6211000;23;19927;-87
2022/03/08 08:20:06;;;;;;;;;;;;;;;;;;6210290;23;19930;-88
2022/03/08 08:22:32;;;;;;;;;;;;;;;;;;6210714;23;19919;-88
2022/03/08 08:24:59;;;;;;;;;;;;;;;;;;6210065;23;19983;-87
2022/03/08 08:27:27;;;;;;;;;;;;;;;;;;6210399;23;20002;-87
2022/03/08 08:29:55;;;;;;;;;;;;;;;;;;6210445;23;19959;-88
2022/03/08 08:32:22;;;;;;;;;;;;;;;;;;6210945;23;19986;-88
2022/03/08 08:34:48;;;;;;;;;;;;;;;;;;6210523;23;20011;-88
2022/03/08 08:37:14;;;;;;;;;;;;;;;;;;6210588;23;20297;-87
2022/03/08 08:39:40;;;;;;;;;;;;;;;;;;6210369;23;19916;-88
2022/03/08 08:42:08;;;;;;;;;;;;;;;;;;6254013;22;19938;-88
2022/03/08 08:44:34;;;;;;;;;;;;;;;;;;6278211;22;19915;-88
2022/03/08 08:47:15;;;;;;;;;;;;;;;;;;6254640;22;19915;-88
2022/03/08 08:49:41;;;;;;;;;;;;;;;;;;6250914;22;19922;-88
2022/03/08 08:52:07;;;;;;;;;;;;;;;;;;6277386;22;19915;-88
2022/03/08 08:54:34;;;;;;;;;;;;;;;;;;6251412;22;19969;-88
2022/03/08 08:57:00;;;;;;;;;;;;;;;;;;6277149;22;19915;-89
2022/03/08 08:59:27;;;;;;;;;;;;;;;;;;6277428;22;19972;-88
2022/03/08 09:01:56;;;;;;;;;;;;;;;;;;6250809;22;20647;-88
2022/03/08 09:04:22;;;;;;;;;;;;;;;;;;6276463;22;19960;-88
2022/03/08 09:06:49;;;;;;;;;;;;;;;;;;6277089;22;20327;-88
2022/03/08 09:09:19;;;;;;;;;;;;;;;;;;6251421;22;19915;-88
2022/03/08 09:11:49;;;;;;;;;;;;;;;;;;6252282;22;20014;-88
2022/03/08 09:14:17;;;;;;;;;;;;;;;;;;6251901;22;19929;-88
2022/03/08 09:16:44;;;;;;;;;;;;;;;;;;6252211;22;19926;-88
2022/03/08 09:19:11;;;;;;;;;;;;;;;;;;6275631;22;19923;-88
2022/03/08 09:21:38;;;;;;;;;;;;;;;;;;6251532;22;19918;-88
2022/03/08 09:24:04;;;;;;;;;;;;;;;;;;6277008;22;20607;-88
2022/03/08 09:26:36;;;;;;;;;;;;;;;;;;6277412;22;19955;-88
2022/03/08 09:29:04;;;;;;;;;;;;;;;;;;6277452;22;20255;-88
2022/03/08 09:31:31;;;;;;;;;;;;;;;;;;6251585;22;19922;-88
2022/03/08 09:33:57;;;;;;;;;;;;;;;;;;6251367;22;19946;-88
2022/03/08 09:36:23;;;;;;;;;;;;;;;;;;6250826;22;20411;-88
2022/03/08 09:38:50;;;;;;;;;;;;;;;;;;6250382;22;20333;-88
2022/03/08 09:41:16;;;;;;;;;;;;;;;;;;6272947;22;20220;-88
2022/03/08 09:43:53;;;;;;;;;;;;;;;;;;6220367;22;19919;-88
2022/03/08 09:46:19;;;;;;;;;;;;;;;;;;6219309;22;19919;-88
2022/03/08 09:48:51;;;;;;;;;;;;;;;;;;6219521;22;20351;-89
2022/03/08 09:51:17;;;;;;;;;;;;;;;;;;6218579;22;19919;-89
2022/03/08 09:53:47;;;;;;;;;;;;;;;;;;6219072;22;20796;-89
2022/03/08 09:56:13;;;;;;;;;;;;;;;;;;6219571;22;19977;-88
2022/03/08 09:58:48;;;;;;;;;;;;;;;;;;6244599;22;19919;-88
2022/03/08 10:01:14;;;;;;;;;;;;;;;;;;6218494;22;20347;-88
2022/03/08 10:03:43;;;;;;;;;;;;;;;;;;6244477;22;19994;-88
2022/03/08 10:06:10;;;;;;;;;;;;;;;;;;6219172;22;20009;-88
2022/03/08 10:08:38;;;;;;;;;;;;;;;;;;6243961;22;20331;-89
2022/03/08 10:14:16;;;;;;;;;;;;;;;;;;6249078;22;19965;-88
2022/03/08 10:16:48;;;;;;;;;;;;;;;;;;6244946;22;19919;-88
2022/03/08 10:19:14;;;;;;;;;;;;;;;;;;6219274;22;19915;-88
2022/03/08 10:21:40;;;;;;;;;;;;;;;;;;6219405;22;20232;-88
2022/03/08 10:24:08;;;;;;;;;;;;;;;;;;6218949;22;19923;-88
2022/03/08 11:00:33;;;;;;;;;;;;;;;;;;6191438;22;20244;-89
2022/03/08 11:02:59;;;;;;;;;;;;;;;;;;6215757;23;19919;-90
2022/03/08 11:05:32;;;;;;;;;;;;;;;;;;6190488;23;20257;-91
2022/03/08 11:08:01;;;;;;;;;;;;;;;;;;6191588;23;20287;-91
2022/03/08 11:10:39;;;;;;;;;;;;;;;;;;6191715;23;19919;-91
2022/03/08 11:13:14;;;;;;;;;;;;;;;;;;6213689;23;19923;-90
2022/03/08 11:16:01;;;;;;;;;;;;;;;;;;6188869;23;19957;-91
2022/03/08 11:18:45;;;;;;;;;;;;;;;;;;6203440;23;20006;-91
2022/03/08 11:21:16;;;;;;;;;;;;;;;;;;6189745;23;20001;-90
2022/03/08 11:24:06;;;;;;;;;;;;;;;;;;6190268;23;19995;-90
2022/03/08 11:26:35;;;;;;;;;;;;;;;;;;6188700;23;19994;-90
2022/03/08 11:29:06;;;;;;;;;;;;;;;;;;6187618;23;19920;-89
2022/03/08 11:31:35;;;;;;;;;;;;;;;;;;6239423;23;20174;-91
2022/03/08 11:34:17;;;;;;;;;;;;;;;;;;;;;
2022/03/08 11:36:57;;;;;;;;;;;;;;;;;;6215356;23;20465;-90
2022/03/08 11:39:29;;;;;;;;;;;;;;;;;;6191233;23;20339;-91
2022/03/08 11:42:00;;;;;;;;;;;;;;;;;;6191111;23;19999;-90
2022/03/08 11:44:32;;;;;;;;;;;;;;;;;;6191075;23;19915;-90
2022/03/08 11:50:09;;;;;;;;;;;;;;;;;;6095706;23;19968;-91
2022/03/08 11:52:41;;;;;;;;;;;;;;;;;;6155297;23;19916;-89
2022/03/08 11:55:14;;;;;;;;;;;;;;;;;;6183826;23;19951;-89
2022/03/08 12:19:24;;;;;;;;;;;;;;;;;;;;;
2022/03/08 12:28:40;;;;;;;;;;;;;;;;;;;;;
2022/03/08 12:34:40;;;;;;;;;;;;;;;;;;5822156;24;19931;-88
2022/03/08 13:11:42;;;;;;;;;;;;;;;;;;5792355;24;19998;-90
2022/03/08 13:52:51;;;;;;;;;;;;;;;;;;;;;
2022/03/08 13:56:10;;;;;;;;;;;;;;;;;;5845208;24;19976;-89
2022/03/08 14:02:20;;;;;;;;;;;;;;;;;;6012125;23;19929;-89
2022/03/08 14:05:10;;;;;;;;;;;;;;;;;;6098604;22;19920;-86
2022/03/08 14:07:37;;;;;;;;;;;;;;;;;;6219592;22;19915;-86
2022/03/08 14:10:04;;;;;;;;;;;;;;;;;;6219441;22;19919;-86
2022/03/08 14:12:31;;;;;;;;;;;;;;;;;;6220116;22;19915;-86
2022/03/08 14:14:58;;;;;;;;;;;;;;;;;;6220460;22;19923;-87
2022/03/08 14:17:26;;;;;;;;;;;;;;;;;;6246096;22;19919;-87
2022/03/08 14:19:53;;;;;;;;;;;;;;;;;;6245117;22;19923;-87
2022/03/08 14:22:19;;;;;;;;;;;;;;;;;;6246135;22;19942;-87
2022/03/08 14:24:47;;;;;;;;;;;;;;;;;;6246193;22;20259;-87
2022/03/08 14:27:14;;;;;;;;;;;;;;;;;;6245698;22;19926;-86
2022/03/08 14:29:40;;;;;;;;;;;;;;;;;;6245998;22;19986;-86
2022/03/08 14:32:25;;;;;;;;;;;;;;;;;;6250376;22;19914;-86
2022/03/08 14:34:52;;;;;;;;;;;;;;;;;;6220848;22;19919;-86
2022/03/08 14:37:19;;;;;;;;;;;;;;;;;;6221014;22;20323;-86
2022/03/08 14:39:49;;;;;;;;;;;;;;;;;;6220627;22;19915;-86
2022/03/08 14:42:15;;;;;;;;;;;;;;;;;;6245278;22;20362;-86
2022/03/08 14:44:42;;;;;;;;;;;;;;;;;;6220324;22;19915;-86
2022/03/08 14:47:09;;;;;;;;;;;;;;;;;;6220488;22;20331;-86
2022/03/08 14:49:37;;;;;;;;;;;;;;;;;;6221017;22;20221;-87
2022/03/08 14:52:03;;;;;;;;;;;;;;;;;;6245464;22;19954;-86
2022/03/08 14:54:36;;;;;;;;;;;;;;;;;;6219414;22;20328;-87
2022/03/08 14:57:03;;;;;;;;;;;;;;;;;;6215583;22;19923;-86
2022/03/08 14:59:29;;;;;;;;;;;;;;;;;;6211507;22;20274;-87
2022/03/08 15:01:57;;;;;;;;;;;;;;;;;;6217057;22;19990;-87
2022/03/08 15:04:24;;;;;;;;;;;;;;;;;;6218707;22;19919;-86
2022/03/08 15:06:50;;;;;;;;;;;;;;;;;;6218955;22;19927;-86
2022/03/08 15:09:18;;;;;;;;;;;;;;;;;;6218355;22;19943;-86
2022/03/08 15:11:46;;;;;;;;;;;;;;;;;;6242878;22;19990;-86
2022/03/08 15:14:14;;;;;;;;;;;;;;;;;;6217162;22;20410;-86
2022/03/08 15:16:42;;;;;;;;;;;;;;;;;;6243437;22;20379;-86
2022/03/08 15:19:10;;;;;;;;;;;;;;;;;;6217030;22;20247;-86
2022/03/08 15:21:38;;;;;;;;;;;;;;;;;;6243365;22;19919;-87
2022/03/08 15:24:08;;;;;;;;;;;;;;;;;;6242505;22;19919;-86
2022/03/08 15:26:35;;;;;;;;;;;;;;;;;;6240999;22;19927;-86
2022/03/08 15:29:21;;;;;;;;;;;;;;;;;;6173796;23;19944;-86
2022/03/08 15:31:49;;;;;;;;;;;;;;;;;;6149125;23;20376;-86
2022/03/08 15:34:17;;;;;;;;;;;;;;;;;;6125102;23;20325;-86
2022/03/08 15:36:44;;;;;;;;;;;;;;;;;;6126735;23;20304;-86
2022/03/08 15:39:11;;;;;;;;;;;;;;;;;;6148959;23;19920;-86
2022/03/08 15:41:38;;;;;;;;;;;;;;;;;;6126575;23;19920;-85
2022/03/08 15:44:05;;;;;;;;;;;;;;;;;;6151252;23;19947;-86
2022/03/08 15:46:33;;;;;;;;;;;;;;;;;;6151545;23;19956;-86
2022/03/08 15:49:00;;;;;;;;;;;;;;;;;;6125523;23;19988;-86
2022/03/08 15:51:43;;;;;;;;;;;;;;;;;;6151799;23;19917;-86
2022/03/08 15:54:10;;;;;;;;;;;;;;;;;;6125019;23;20215;-86
2022/03/08 15:56:38;;;;;;;;;;;;;;;;;;6125000;23;19920;-86
2022/03/08 15:59:07;;;;;;;;;;;;;;;;;;6151578;23;19955;-86
2022/03/08 16:01:43;;;;;;;;;;;;;;;;;;6209072;23;19924;-86
2022/03/08 16:04:10;;;;;;;;;;;;;;;;;;6183366;23;20022;-86
2022/03/08 16:06:38;;;;;;;;;;;;;;;;;;6208030;23;19954;-86
2022/03/08 16:09:05;;;;;;;;;;;;;;;;;;6208797;23;19927;-86
2022/03/08 16:11:46;;;;;;;;;;;;;;;;;;6145297;23;19980;-86
2022/03/08 16:14:14;;;;;;;;;;;;;;;;;;6096791;23;19996;-86
2022/03/08 16:16:45;;;;;;;;;;;;;;;;;;6094619;23;19920;-87
2022/03/08 16:19:11;;;;;;;;;;;;;;;;;;6082639;23;19921;-86
2022/03/08 16:21:38;;;;;;;;;;;;;;;;;;6038862;23;19988;-86
2022/03/08 16:24:05;;;;;;;;;;;;;;;;;;6088510;23;20586;-87
2022/03/08 16:26:32;;;;;;;;;;;;;;;;;;6114105;23;19946;-86
2022/03/08 16:35:27;;;;;;;;;;;;;;;;;;6126854;23;20116;-87
2022/03/08 16:37:55;;;;;;;;;;;;;;;;;;6119478;23;19925;-88
2022/03/08 16:40:25;;;;;;;;;;;;;;;;;;6118688;23;20033;-87
2022/03/08 16:42:52;;;;;;;;;;;;;;;;;;6119599;23;20007;-86
2022/03/08 16:45:21;;;;;;;;;;;;;;;;;;6120023;23;19920;-86
2022/03/08 16:47:52;;;;;;;;;;;;;;;;;;6121058;23;19917;-87
2022/03/08 16:50:37;;;;;;;;;;;;;;;;;;6214818;23;20284;-86
2022/03/08 16:53:05;;;;;;;;;;;;;;;;;;6185388;23;19951;-86
2022/03/08 16:55:32;;;;;;;;;;;;;;;;;;6184738;23;19931;-87
2022/03/08 16:58:00;;;;;;;;;;;;;;;;;;6186714;23;19916;-86
2022/03/08 17:00:27;;;;;;;;;;;;;;;;;;6185218;23;19923;-88
2022/03/08 17:02:58;;;;;;;;;;;;;;;;;;6181470;23;19939;-87
2022/03/08 17:05:26;;;;;;;;;;;;;;;;;;6239954;22;19926;-87
2022/03/08 17:07:53;;;;;;;;;;;;;;;;;;6216854;22;19919;-87
2022/03/08 17:10:35;;;;;;;;;;;;;;;;;;6243345;22;19969;-88
2022/03/08 17:13:02;;;;;;;;;;;;;;;;;;6216201;22;19923;-86
2022/03/08 17:15:34;;;;;;;;;;;;;;;;;;6214871;22;19929;-87
2022/03/08 17:18:08;;;;;;;;;;;;;;;;;;6241035;22;19919;-87
2022/03/08 17:20:35;;;;;;;;;;;;;;;;;;6215524;22;20332;-87
2022/03/08 17:23:06;;;;;;;;;;;;;;;;;;6214287;22;20255;-87
2022/03/08 17:25:32;;;;;;;;;;;;;;;;;;6215179;22;19923;-88
2022/03/08 17:27:59;;;;;;;;;;;;;;;;;;6240846;22;19964;-87
2022/03/08 17:30:27;;;;;;;;;;;;;;;;;;6212983;22;20251;-87
2022/03/08 17:32:54;;;;;;;;;;;;;;;;;;6238004;22;19973;-87
2022/03/08 17:35:20;;;;;;;;;;;;;;;;;;6213250;22;19927;-86
2022/03/08 17:37:47;;;;;;;;;;;;;;;;;;6214308;22;19994;-87
2022/03/08 17:40:14;;;;;;;;;;;;;;;;;;6214513;22;19919;-87
2022/03/08 17:42:56;;;;;;;;;;;;;;;;;;6245590;22;19982;-87
2022/03/08 17:45:24;;;;;;;;;;;;;;;;;;6214751;22;19942;-87
2022/03/08 17:47:50;;;;;;;;;;;;;;;;;;6239246;22;19965;-87
2022/03/08 17:50:16;;;;;;;;;;;;;;;;;;6235091;22;20193;-86
2022/03/08 17:52:43;;;;;;;;;;;;;;;;;;6215552;22;19923;-86
2022/03/08 17:55:14;;;;;;;;;;;;;;;;;;6242853;22;19930;-86
2022/03/08 17:57:43;;;;;;;;;;;;;;;;;;6214737;22;19977;-86
2022/03/08 18:00:10;;;;;;;;;;;;;;;;;;6234003;22;19922;-85
2022/03/08 18:02:37;;;;;;;;;;;;;;;;;;6217549;22;20251;-85
2022/03/08 18:05:04;;;;;;;;;;;;;;;;;;6215209;22;19998;-86
2022/03/08 18:07:30;;;;;;;;;;;;;;;;;;6241318;22;20014;-85
2022/03/08 18:10:16;;;;;;;;;;;;;;;;;;6244443;22;20252;-86
2022/03/08 18:12:43;;;;;;;;;;;;;;;;;;6216402;22;19997;-86
2022/03/08 18:15:10;;;;;;;;;;;;;;;;;;6269886;22;19923;-87
2022/03/08 18:17:37;;;;;;;;;;;;;;;;;;6268347;22;20343;-87
2022/03/08 18:20:04;;;;;;;;;;;;;;;;;;6216406;22;20093;-86
2022/03/08 18:22:35;;;;;;;;;;;;;;;;;;6241481;22;20298;-86
2022/03/08 18:25:02;;;;;;;;;;;;;;;;;;6216008;22;19990;-85
2022/03/08 18:27:32;;;;;;;;;;;;;;;;;;6243391;22;19965;-85
2022/03/08 18:29:58;;;;;;;;;;;;;;;;;;6241677;22;19953;-85
2022/03/08 18:32:25;;;;;;;;;;;;;;;;;;6215968;22;19923;-86
2022/03/08 18:34:53;;;;;;;;;;;;;;;;;;6215310;22;19927;-86
2022/03/08 18:37:35;;;;;;;;;;;;;;;;;;6242711;22;19942;-86
2022/03/08 18:40:03;;;;;;;;;;;;;;;;;;6215791;22;19919;-86
2022/03/08 18:42:31;;;;;;;;;;;;;;;;;;6241518;22;19925;-86
2022/03/08 18:44:57;;;;;;;;;;;;;;;;;;6242080;22;19941;-86
2022/03/08 18:47:24;;;;;;;;;;;;;;;;;;6241774;22;20635;-85
2022/03/08 18:49:50;;;;;;;;;;;;;;;;;;6239916;22;20073;-86
2022/03/08 18:52:17;;;;;;;;;;;;;;;;;;6217293;22;19947;-85
2022/03/08 18:54:44;;;;;;;;;;;;;;;;;;6241402;22;20607;-86
2022/03/08 18:57:10;;;;;;;;;;;;;;;;;;6214751;22;19922;-86
2022/03/08 18:59:42;;;;;;;;;;;;;;;;;;6242548;22;20006;-86
2022/03/08 19:02:09;;;;;;;;;;;;;;;;;;6216972;22;19926;-86
2022/03/08 19:04:35;;;;;;;;;;;;;;;;;;6240996;22;20604;-86
2022/03/08 19:07:17;;;;;;;;;;;;;;;;;;6268348;22;19961;-85
2022/03/08 19:09:46;;;;;;;;;;;;;;;;;;6239637;22;19955;-85
2022/03/08 19:12:20;;;;;;;;;;;;;;;;;;6238863;22;19916;-85
2022/03/08 21:40:44;;;;;;;;;;;;;;;;;;6247120;22;20380;-86
2022/03/08 21:46:03;;;;;;;;;;;;;;;;;;6213332;23;19919;-87
2022/03/08 21:48:42;;;;;;;;;;;;;;;;;;;;;
2022/03/08 21:51:15;;;;;;;;;;;;;;;;;;6214144;23;19930;-86
2022/03/08 21:53:47;;;;;;;;;;;;;;;;;;6215357;23;19915;-85
2022/03/08 21:56:22;;;;;;;;;;;;;;;;;;6214849;23;19924;-86
2022/03/08 21:58:48;;;;;;;;;;;;;;;;;;6214411;23;19931;-85